Time;durP1;ratioP1;P1;durP2;ratioP2;P2;SDS_P1;SDS_P2;PMS_P1;PMS_P2;Temp;Humidity;BMP_temperature;BMP_pressure;BME280_temperature;BME280_humidity;BME280_pressure;Samples;Min_cycle;Max_cycle;Signal;HPM_P1;HPM_P2
2022/11/16 00:01:19;;;;;;;15.70;10.97;;;9.60;99.90;;;;;;5052601;28;20217;-84
2022/11/16 00:03:45;;;;;;;16.97;11.00;;;9.60;99.90;;;;;;5053046;28;20175;-85
2022/11/16 00:06:12;;;;;;;15.37;11.30;;;9.70;99.90;;;;;;5035895;28;20641;-84
2022/11/16 00:08:40;;;;;;;14.33;10.57;;;9.60;99.90;;;;;;5057003;28;20180;-85
2022/11/16 00:11:14;;;;;;;16.80;11.70;;;9.60;99.90;;;;;;5074760;28;20179;-85
2022/11/16 00:13:42;;;;;;;14.27;9.67;;;9.60;99.90;;;;;;5059593;28;20170;-85
2022/11/16 00:16:14;;;;;;;14.70;10.97;;;9.60;99.90;;;;;;5057045;28;20184;-85
2022/11/16 00:18:41;;;;;;;16.13;10.60;;;9.50;99.90;;;;;;5065852;28;20210;-83
2022/11/16 00:21:07;;;;;;;17.27;10.97;;;9.50;99.90;;;;;;5057387;28;20673;-84
2022/11/16 00:23:37;;;;;;;15.50;10.30;;;9.50;99.90;;;;;;5072775;28;20232;-83
2022/11/16 00:26:08;;;;;;;14.23;10.07;;;9.50;99.90;;;;;;5066928;28;20266;-85
2022/11/16 00:28:35;;;;;;;13.50;10.17;;;9.50;99.90;;;;;;5057011;28;20174;-84
2022/11/16 00:31:03;;;;;;;15.80;10.80;;;9.50;99.90;;;;;;5056690;28;20689;-85
2022/11/16 00:33:32;;;;;;;14.70;10.53;;;9.50;99.90;;;;;;5056467;28;20179;-84
2022/11/16 00:36:00;;;;;;;16.13;10.13;;;9.50;99.90;;;;;;5056595;28;20189;-85
2022/11/16 00:38:26;;;;;;;16.07;10.33;;;9.50;99.90;;;;;;5060279;28;20175;-86
2022/11/16 00:40:52;;;;;;;15.03;9.73;;;9.60;99.90;;;;;;5057637;28;20208;-84
2022/11/16 00:43:18;;;;;;;14.20;10.47;;;9.50;99.90;;;;;;5057188;28;20253;-83
2022/11/16 00:45:44;;;;;;;13.67;9.87;;;9.50;99.90;;;;;;5063247;28;20269;-83
2022/11/16 00:48:11;;;;;;;16.07;9.97;;;9.60;99.90;;;;;;5059327;28;20654;-84
2022/11/16 00:50:37;;;;;;;15.93;10.47;;;9.60;99.90;;;;;;5056058;28;20258;-83
2022/11/16 00:53:04;;;;;;;15.20;10.10;;;9.50;99.90;;;;;;5056000;28;20187;-85
2022/11/16 00:55:30;;;;;;;16.37;10.30;;;9.50;99.90;;;;;;5038427;28;20230;-85
2022/11/16 00:57:56;;;;;;;17.53;11.03;;;9.50;99.90;;;;;;5057681;28;20236;-84
2022/11/16 01:00:22;;;;;;;14.50;9.63;;;9.40;99.90;;;;;;5057970;28;20178;-84
2022/11/16 01:02:48;;;;;;;13.33;10.07;;;9.50;99.90;;;;;;5061897;28;20181;-84
2022/11/16 01:05:17;;;;;;;12.03;9.73;;;9.40;99.90;;;;;;5055952;28;20208;-83
2022/11/16 01:07:42;;;;;;;16.67;10.27;;;9.40;99.90;;;;;;5055714;28;20179;-85
2022/11/16 01:10:14;;;;;;;14.03;9.87;;;9.50;99.90;;;;;;5037588;28;20691;-83
2022/11/16 01:12:40;;;;;;;15.23;10.33;;;9.50;99.90;;;;;;5055659;28;20186;-86
2022/11/16 01:15:09;;;;;;;15.07;10.03;;;9.50;99.90;;;;;;5037648;28;20182;-83
2022/11/16 01:17:36;;;;;;;14.87;9.63;;;9.40;99.90;;;;;;5054730;28;20189;-85
2022/11/16 01:20:04;;;;;;;16.03;10.33;;;9.50;99.90;;;;;;5055901;28;20185;-84
2022/11/16 01:22:33;;;;;;;15.63;10.20;;;9.40;99.90;;;;;;5037236;28;20582;-85
2022/11/16 01:24:59;;;;;;;15.03;10.60;;;9.40;99.90;;;;;;5055483;28;20634;-84
2022/11/16 01:27:26;;;;;;;15.70;10.17;;;9.30;99.90;;;;;;5055357;28;20603;-85
2022/11/16 01:29:52;;;;;;;15.00;10.70;;;9.20;99.90;;;;;;5055169;28;20223;-82
2022/11/16 01:32:18;;;;;;;15.13;10.33;;;9.20;99.90;;;;;;5037258;28;20185;-82
2022/11/16 01:34:44;;;;;;;15.77;10.53;;;9.20;99.90;;;;;;5054876;28;20179;-84
2022/11/16 01:37:10;;;;;;;16.43;10.47;;;9.20;99.90;;;;;;5054963;28;20204;-82
2022/11/16 01:39:36;;;;;;;14.07;9.83;;;9.30;99.90;;;;;;5039633;28;20280;-84
2022/11/16 01:42:04;;;;;;;12.60;10.13;;;9.30;99.90;;;;;;5058583;28;20299;-82
2022/11/16 01:44:32;;;;;;;17.37;11.40;;;9.20;99.90;;;;;;5057189;28;20181;-81
2022/11/16 01:47:14;;;;;;;16.80;10.80;;;9.20;99.90;;;;;;5058040;28;20229;-83
2022/11/16 01:50:08;;;;;;;12.43;9.47;;;9.20;99.90;;;;;;5062429;28;20183;-82
2022/11/16 01:52:39;;;;;;;15.07;10.13;;;9.20;99.90;;;;;;5055647;28;20182;-85
2022/11/16 01:55:05;;;;;;;15.53;10.57;;;9.30;99.90;;;;;;5037210;28;20180;-84
2022/11/16 01:57:39;;;;;;;15.07;10.47;;;9.30;99.90;;;;;;5055006;28;20634;-83
2022/11/16 02:00:08;;;;;;;16.60;10.93;;;9.30;99.90;;;;;;5036829;28;20186;-86
2022/11/16 02:02:34;;;;;;;15.40;11.00;;;9.20;99.90;;;;;;5036796;28;20268;-86
2022/11/16 02:05:02;;;;;;;17.00;10.30;;;9.20;99.90;;;;;;5054609;28;20185;-85
2022/11/16 02:11:02;;;;;;;15.90;10.57;;;9.20;99.90;;;;;;5058446;28;20181;-85
2022/11/16 02:13:44;;;;;;;16.50;10.50;;;9.20;99.90;;;;;;5027187;28;20198;-84
2022/11/16 02:16:32;;;;;;;14.07;9.77;;;9.30;99.90;;;;;;5061269;28;20551;-84
2022/11/16 02:19:06;;;;;;;15.83;10.17;;;9.30;99.90;;;;;;5059679;28;20209;-84
2022/11/16 02:21:44;;;;;;;18.47;10.70;;;9.30;99.90;;;;;;5062268;28;20220;-85
2022/11/16 02:24:24;;;;;;;15.87;10.57;;;9.20;99.90;;;;;;5053946;28;20218;-85
2022/11/16 02:27:05;;;;;;;15.57;10.07;;;9.20;99.90;;;;;;5054595;28;20640;-84
2022/11/16 02:29:38;;;;;;;14.87;10.17;;;9.20;99.90;;;;;;5054188;28;20258;-85
2022/11/16 02:32:33;;;;;;;17.23;10.27;;;9.20;99.90;;;;;;5036146;28;20665;-84
2022/11/16 02:35:02;;;;;;;15.03;10.13;;;9.20;99.90;;;;;;5055188;28;20169;-86
2022/11/16 02:37:33;;;;;;;16.17;10.80;;;9.20;99.90;;;;;;5054436;28;20208;-83
2022/11/16 02:40:03;;;;;;;13.87;10.03;;;9.20;99.90;;;;;;5036201;28;20180;-84
2022/11/16 02:42:37;;;;;;;13.63;9.70;;;9.30;99.90;;;;;;5053875;28;20311;-83
2022/11/16 02:45:07;;;;;;;13.03;9.50;;;9.20;99.90;;;;;;5053832;28;20177;-83
2022/11/16 02:47:35;;;;;;;15.03;10.63;;;9.20;99.90;;;;;;5053576;28;20637;-83
2022/11/16 02:50:07;;;;;;;15.67;11.10;;;9.20;99.90;;;;;;5053730;28;20595;-83
2022/11/16 02:52:35;;;;;;;14.50;10.10;;;9.20;99.90;;;;;;5035775;28;20264;-82
2022/11/16 02:55:01;;;;;;;15.77;10.60;;;9.30;99.90;;;;;;5038150;28;20194;-83
2022/11/16 02:57:48;;;;;;;14.67;9.80;;;9.30;99.90;;;;;;5054764;28;20253;-84
2022/11/16 03:00:21;;;;;;;10.77;8.63;;;9.20;99.90;;;;;;5053613;28;20531;-82
2022/11/16 03:03:10;;;;;;;12.97;8.77;;;9.20;99.90;;;;;;5035812;28;20196;-82
2022/11/16 03:06:04;;;;;;;12.03;9.20;;;9.20;99.90;;;;;;5064253;28;20195;-82
2022/11/16 03:08:35;;;;;;;12.03;9.27;;;9.10;99.90;;;;;;5027688;28;20213;-82
2022/11/16 03:13:49;;;;;;;14.00;10.07;;;8.90;99.90;;;;;;5053415;28;20531;-83
2022/11/16 03:16:21;;;;;;;14.83;9.43;;;8.80;99.90;;;;;;5049437;28;20193;-83
2022/11/16 03:18:50;;;;;;;14.60;9.87;;;8.70;99.90;;;;;;5040109;28;20178;-83
2022/11/16 03:21:46;;;;;;;12.00;9.13;;;8.70;99.90;;;;;;5035124;28;20228;-85
2022/11/16 03:24:13;;;;;;;14.57;9.67;;;8.70;99.90;;;;;;5052947;28;20311;-83
2022/11/16 03:26:58;;;;;;;15.20;9.67;;;8.70;99.90;;;;;;5035267;28;20184;-83
2022/11/16 03:29:27;;;;;;;13.50;9.90;;;8.70;99.90;;;;;;5053378;28;20249;-85
2022/11/16 03:32:01;;;;;;;13.03;9.63;;;8.70;99.90;;;;;;5035274;28;20189;-85
2022/11/16 03:34:32;;;;;;;13.23;9.87;;;8.70;99.90;;;;;;5053097;28;20508;-84
2022/11/16 03:37:00;;;;;;;13.53;9.63;;;8.60;99.90;;;;;;5053461;28;20172;-84
2022/11/16 03:39:35;;;;;;;12.60;9.40;;;8.60;99.90;;;;;;5052966;28;20172;-83
2022/11/16 03:42:04;;;;;;;13.33;10.17;;;8.70;99.90;;;;;;5034365;28;20300;-83
2022/11/16 03:44:30;;;;;;;14.27;10.57;;;8.70;99.90;;;;;;5054067;28;20181;-83
2022/11/16 03:46:56;;;;;;;14.43;9.80;;;8.70;99.90;;;;;;5035087;28;20239;-83
2022/11/16 03:49:23;;;;;;;14.47;9.93;;;8.70;99.90;;;;;;5052989;28;20185;-84
2022/11/16 03:51:49;;;;;;;16.37;10.70;;;8.80;99.90;;;;;;5058193;28;20215;-84
2022/11/16 03:54:15;;;;;;;14.63;9.83;;;8.70;99.90;;;;;;5037861;28;20562;-86
2022/11/16 03:56:41;;;;;;;14.27;10.07;;;8.50;99.90;;;;;;5054044;28;20183;-84
2022/11/16 03:59:07;;;;;;;13.80;10.00;;;8.40;99.90;;;;;;5034979;28;20221;-86
2022/11/16 04:01:33;;;;;;;15.60;11.13;;;8.40;99.90;;;;;;5034849;28;20217;-85
2022/11/16 04:03:59;;;;;;;17.80;10.90;;;8.30;99.90;;;;;;5035810;28;20188;-85
2022/11/16 04:25:48;;;;;;;14.47;10.20;;;8.00;99.90;;;;;;5049389;28;20199;-84
2022/11/16 04:28:16;;;;;;;14.40;11.07;;;8.00;99.90;;;;;;5033101;28;20951;-85
2022/11/16 04:39:24;;;;;;;15.70;10.53;;;8.00;99.90;;;;;;5034423;28;20581;-83
2022/11/16 04:47:19;;;;;;;13.90;10.57;;;8.10;99.90;;;;;;5052626;28;20171;-81
2022/11/16 04:49:45;;;;;;;15.83;10.37;;;8.20;99.90;;;;;;5051598;28;20184;-83
2022/11/16 04:52:11;;;;;;;16.53;11.13;;;8.20;99.90;;;;;;5051965;28;20207;-82
2022/11/16 04:54:36;;;;;;;16.87;11.30;;;8.20;99.90;;;;;;5054950;28;20190;-83
2022/11/16 04:57:03;;;;;;;13.30;9.70;;;8.20;99.90;;;;;;5054582;28;20265;-84
2022/11/16 04:59:28;;;;;;;14.47;9.87;;;8.20;99.90;;;;;;5037505;28;20194;-83
2022/11/16 05:02:09;;;;;;;13.17;9.73;;;8.20;99.90;;;;;;5054743;28;20211;-83
2022/11/16 05:04:37;;;;;;;12.63;9.87;;;8.30;99.90;;;;;;5055246;28;20183;-83
2022/11/16 05:07:03;;;;;;;19.77;11.03;;;8.30;99.90;;;;;;5054133;28;20221;-84
2022/11/16 05:09:29;;;;;;;14.70;10.83;;;8.30;99.90;;;;;;5053616;28;20200;-84
2022/11/16 05:11:55;;;;;;;16.70;10.67;;;8.30;99.90;;;;;;5054740;28;20187;-82
2022/11/16 05:14:20;;;;;;;15.93;10.20;;;8.40;99.90;;;;;;5053446;28;20274;-82
2022/11/16 05:16:47;;;;;;;16.73;11.57;;;8.50;99.90;;;;;;5036441;28;20200;-82
2022/11/16 05:21:57;;;;;;;15.20;10.80;;;8.60;99.90;;;;;;5054922;28;20234;-85
2022/11/16 05:24:35;;;;;;;16.50;10.67;;;8.60;99.90;;;;;;5037077;28;20224;-83
2022/11/16 05:27:03;;;;;;;14.20;10.30;;;8.60;99.90;;;;;;5054515;28;20643;-82
2022/11/16 05:29:29;;;;;;;14.00;10.63;;;8.60;99.90;;;;;;5035762;28;20184;-84
2022/11/16 05:31:54;;;;;;;15.73;10.63;;;8.60;99.90;;;;;;5036559;28;20185;-85
2022/11/16 05:34:20;;;;;;;14.90;10.17;;;8.60;99.90;;;;;;5054926;28;20212;-84
2022/11/16 05:36:46;;;;;;;16.43;11.37;;;8.60;99.90;;;;;;5055098;28;20648;-83
2022/11/16 05:39:12;;;;;;;15.43;10.97;;;8.40;99.90;;;;;;5054915;28;20181;-82
2022/11/16 05:41:38;;;;;;;14.23;10.73;;;8.40;99.90;;;;;;5036212;28;20275;-83
2022/11/16 05:44:03;;;;;;;18.87;12.17;;;8.30;99.90;;;;;;5036859;28;20314;-82
2022/11/16 05:46:29;;;;;;;16.47;10.93;;;8.30;99.90;;;;;;5054584;28;20443;-82
2022/11/16 05:48:55;;;;;;;15.40;10.60;;;8.30;99.90;;;;;;5036870;28;20231;-83
2022/11/16 05:51:21;;;;;;;13.73;10.53;;;8.30;99.90;;;;;;5055022;28;20177;-82
2022/11/16 05:53:48;;;;;;;15.87;11.37;;;8.40;99.90;;;;;;5055654;28;20187;-83
2022/11/16 05:56:15;;;;;;;17.10;11.77;;;8.40;99.90;;;;;;5055663;28;20619;-82
2022/11/16 05:58:42;;;;;;;14.83;10.83;;;8.50;99.90;;;;;;5057645;28;20233;-83
2022/11/16 06:01:08;;;;;;;19.07;12.30;;;8.60;99.90;;;;;;5054701;28;20219;-83
2022/11/16 06:03:35;;;;;;;15.67;11.20;;;8.60;99.90;;;;;;5057489;28;20246;-82
2022/11/16 06:06:02;;;;;;;16.47;12.03;;;8.70;99.90;;;;;;5069163;28;20657;-83
2022/11/16 06:08:28;;;;;;;18.07;12.07;;;8.70;99.90;;;;;;5054436;28;20215;-84
2022/11/16 06:10:54;;;;;;;17.17;10.77;;;8.80;99.90;;;;;;5037908;28;20575;-82
2022/11/16 06:13:20;;;;;;;16.30;11.67;;;8.80;99.90;;;;;;5055956;28;20268;-83
2022/11/16 06:15:46;;;;;;;17.27;11.03;;;8.80;99.90;;;;;;5071967;28;20184;-82
2022/11/16 06:18:12;;;;;;;16.27;11.57;;;8.80;99.90;;;;;;5054647;28;20180;-79
2022/11/16 06:20:39;;;;;;;16.10;12.13;;;8.80;99.90;;;;;;5053864;28;20176;-81
2022/11/16 06:23:06;;;;;;;19.13;12.10;;;8.80;99.90;;;;;;5054190;28;20579;-78
2022/11/16 06:25:32;;;;;;;18.20;12.20;;;8.80;99.90;;;;;;5053818;28;20259;-79
2022/11/16 06:27:58;;;;;;;15.07;10.90;;;8.80;99.90;;;;;;5054068;28;20224;-80
2022/11/16 06:30:24;;;;;;;12.97;9.80;;;8.70;99.90;;;;;;5035945;28;20251;-79
2022/11/16 06:32:50;;;;;;;13.57;9.60;;;8.70;99.90;;;;;;5053732;28;20181;-79
2022/11/16 06:35:16;;;;;;;13.63;10.27;;;8.70;99.90;;;;;;5053710;28;20181;-80
2022/11/16 06:37:42;;;;;;;15.77;10.03;;;8.50;99.90;;;;;;5053694;28;20237;-80
2022/11/16 06:40:09;;;;;;;13.37;9.47;;;8.40;99.90;;;;;;5035921;28;20516;-80
2022/11/16 06:42:35;;;;;;;17.77;10.07;;;8.30;99.90;;;;;;5053656;28;20208;-81
2022/11/16 06:45:01;;;;;;;14.73;10.07;;;8.40;99.90;;;;;;5053600;28;20187;-80
2022/11/16 06:47:27;;;;;;;14.03;10.23;;;8.40;99.90;;;;;;5053633;28;20524;-78
2022/11/16 06:49:52;;;;;;;12.73;9.57;;;8.30;99.90;;;;;;5053692;28;20186;-80
2022/11/16 06:52:18;;;;;;;13.30;9.97;;;8.30;99.90;;;;;;5053699;28;20176;-82
2022/11/16 06:54:44;;;;;;;13.90;9.73;;;8.20;99.90;;;;;;5053479;28;20634;-79
2022/11/16 06:57:10;;;;;;;16.60;10.73;;;8.10;99.90;;;;;;5035561;28;20218;-79
2022/11/16 06:59:36;;;;;;;13.93;10.20;;;8.10;99.90;;;;;;5053181;28;20179;-80
2022/11/16 07:02:01;;;;;;;16.50;10.77;;;8.00;99.90;;;;;;5035157;28;20223;-80
2022/11/16 07:04:27;;;;;;;13.40;9.23;;;8.00;99.90;;;;;;5053201;28;20183;-78
2022/11/16 07:06:53;;;;;;;16.83;10.47;;;8.10;99.90;;;;;;5035561;28;20689;-80
2022/11/16 07:09:19;;;;;;;16.00;11.23;;;8.20;99.90;;;;;;5053824;28;20591;-79
2022/11/16 07:11:45;;;;;;;15.70;10.30;;;8.20;99.90;;;;;;5055296;28;20194;-81
2022/11/16 07:14:11;;;;;;;16.63;10.67;;;8.20;99.90;;;;;;5053924;28;20180;-80
2022/11/16 07:16:37;;;;;;;18.93;11.30;;;8.20;99.90;;;;;;5052713;28;20188;-81
2022/11/16 07:19:03;;;;;;;18.40;11.07;;;8.20;99.90;;;;;;5035388;28;20238;-80
2022/11/16 07:21:29;;;;;;;17.50;11.00;;;8.30;99.90;;;;;;5052910;28;20230;-81
2022/11/16 07:23:55;;;;;;;16.73;11.63;;;8.30;99.90;;;;;;5034892;28;20235;-79
2022/11/16 07:26:21;;;;;;;17.27;10.57;;;8.30;99.90;;;;;;5034935;28;20191;-80
2022/11/16 07:28:47;;;;;;;18.47;11.37;;;8.40;99.90;;;;;;5052823;28;20237;-80
2022/11/16 07:31:14;;;;;;;13.97;10.43;;;8.40;99.90;;;;;;5034743;28;20334;-80
2022/11/16 07:33:40;;;;;;;15.07;9.90;;;8.30;99.90;;;;;;5038526;28;20640;-80
2022/11/16 07:36:13;;;;;;;14.83;10.90;;;8.40;99.90;;;;;;5054255;28;20188;-80
2022/11/16 07:38:40;;;;;;;16.60;10.97;;;8.50;99.90;;;;;;5052503;28;20168;-79
2022/11/16 07:41:10;;;;;;;15.93;10.70;;;8.50;99.90;;;;;;5052712;28;20215;-79
2022/11/16 07:43:36;;;;;;;18.00;10.63;;;8.50;99.90;;;;;;5036782;28;20250;-80
2022/11/16 07:46:16;;;;;;;15.83;9.60;;;8.60;99.90;;;;;;5035959;28;20238;-81
2022/11/16 07:48:42;;;;;;;17.03;10.53;;;8.60;99.90;;;;;;5036388;28;20176;-80
2022/11/16 07:51:11;;;;;;;13.23;10.07;;;8.50;99.90;;;;;;5052667;28;20561;-79
2022/11/16 07:53:38;;;;;;;16.63;10.90;;;8.40;99.90;;;;;;5052608;28;20176;-79
2022/11/16 07:56:04;;;;;;;17.50;10.67;;;8.50;99.90;;;;;;5052153;28;20186;-79
2022/11/16 07:58:32;;;;;;;18.33;10.83;;;8.50;99.90;;;;;;5052562;28;20248;-78
2022/11/16 08:01:13;;;;;;;15.30;10.37;;;8.50;99.90;;;;;;5052176;28;20269;-78
2022/11/16 08:03:40;;;;;;;15.70;9.97;;;8.60;99.90;;;;;;5034322;28;20197;-79
2022/11/16 08:06:10;;;;;;;15.67;10.60;;;8.70;99.90;;;;;;5052329;28;20187;-80
2022/11/16 08:08:36;;;;;;;17.90;11.47;;;8.70;99.90;;;;;;5052360;28;20627;-80
2022/11/16 08:11:04;;;;;;;17.37;10.33;;;8.80;99.90;;;;;;5034223;28;20273;-79
2022/11/16 08:13:33;;;;;;;16.23;10.63;;;8.80;99.90;;;;;;5052155;28;20187;-80
2022/11/16 08:16:03;;;;;;;15.33;10.60;;;8.80;99.90;;;;;;5052173;28;20210;-81
2022/11/16 08:18:29;;;;;;;14.40;10.47;;;8.70;99.90;;;;;;5052292;28;20226;-79
2022/11/16 08:20:58;;;;;;;17.30;11.07;;;8.80;99.90;;;;;;5052067;28;20215;-81
2022/11/16 08:23:24;;;;;;;14.27;10.43;;;8.80;99.90;;;;;;5056077;28;20246;-80
2022/11/16 08:25:50;;;;;;;16.70;10.77;;;8.80;99.90;;;;;;5052703;28;20257;-79
2022/11/16 08:28:16;;;;;;;16.27;10.73;;;8.90;99.90;;;;;;5054962;28;20774;-79
2022/11/16 08:30:42;;;;;;;17.10;11.50;;;8.90;99.90;;;;;;5038233;28;20236;-79
2022/11/16 08:33:08;;;;;;;17.00;10.53;;;8.70;99.90;;;;;;5056029;28;20190;-79
2022/11/16 08:35:35;;;;;;;17.30;10.77;;;8.70;99.90;;;;;;5055869;28;20294;-80
2022/11/16 08:38:01;;;;;;;17.17;10.73;;;8.80;99.90;;;;;;5056172;28;20875;-82
2022/11/16 08:40:27;;;;;;;18.13;10.90;;;8.80;99.90;;;;;;5056168;28;20238;-80
2022/11/16 08:42:56;;;;;;;18.27;11.37;;;9.00;99.90;;;;;;5055814;28;20212;-79
2022/11/16 08:45:23;;;;;;;14.03;10.50;;;9.10;99.90;;;;;;5055786;28;20181;-80
2022/11/16 08:47:51;;;;;;;15.20;10.63;;;9.20;99.90;;;;;;5037803;28;20186;-81
2022/11/16 08:50:17;;;;;;;16.20;10.57;;;9.30;99.90;;;;;;5055913;28;20213;-78
2022/11/16 08:52:43;;;;;;;14.27;9.93;;;9.30;99.90;;;;;;5037939;28;20183;-79
2022/11/16 08:55:09;;;;;;;16.30;10.83;;;9.40;99.90;;;;;;5055610;28;20182;-79
2022/11/16 08:57:35;;;;;;;15.20;10.73;;;9.20;99.90;;;;;;5037913;28;20635;-79
2022/11/16 09:00:01;;;;;;;16.73;10.93;;;9.20;99.90;;;;;;5057040;28;20543;-80
2022/11/16 09:02:27;;;;;;;13.93;9.87;;;9.10;99.90;;;;;;5057434;28;20216;-80
2022/11/16 09:04:53;;;;;;;15.33;10.10;;;8.90;99.90;;;;;;5055178;28;20180;-80
2022/11/16 09:07:20;;;;;;;16.17;10.43;;;9.00;99.90;;;;;;5055318;28;20175;-80
2022/11/16 09:09:46;;;;;;;15.33;10.43;;;9.00;99.90;;;;;;5057209;28;20181;-81
2022/11/16 09:12:11;;;;;;;14.63;10.47;;;8.90;99.90;;;;;;5041443;28;20307;-80
2022/11/16 09:14:37;;;;;;;17.17;11.23;;;8.90;99.90;;;;;;5055297;28;20732;-82
2022/11/16 09:17:03;;;;;;;16.67;10.73;;;9.00;99.90;;;;;;5055033;28;20177;-80
2022/11/16 09:19:29;;;;;;;14.77;10.80;;;8.80;99.90;;;;;;5054968;28;20543;-79
2022/11/16 09:21:55;;;;;;;14.73;9.97;;;8.70;99.90;;;;;;5054976;28;20207;-79
2022/11/16 09:24:21;;;;;;;18.53;10.80;;;8.70;99.90;;;;;;5055557;28;20212;-80
2022/11/16 09:26:47;;;;;;;16.43;10.57;;;8.70;99.90;;;;;;5037659;28;20301;-78
2022/11/16 09:29:14;;;;;;;14.50;10.93;;;8.70;99.90;;;;;;5054857;28;20205;-80
2022/11/16 09:31:40;;;;;;;17.17;10.97;;;8.80;99.90;;;;;;5054905;28;20213;-80
2022/11/16 09:34:07;;;;;;;18.33;10.70;;;8.90;99.90;;;;;;5054889;28;20182;-80
2022/11/16 09:36:33;;;;;;;12.40;9.77;;;9.00;99.90;;;;;;5055603;28;20187;-80
2022/11/16 09:38:59;;;;;;;19.77;10.77;;;8.90;99.90;;;;;;5055941;28;20611;-80
2022/11/16 09:41:40;;;;;;;18.27;11.03;;;8.90;99.90;;;;;;5036594;28;20322;-79
2022/11/16 09:44:44;;;;;;;14.40;10.30;;;9.00;99.90;;;;;;5036974;28;20270;-78
2022/11/16 09:47:21;;;;;;;17.20;11.27;;;9.10;99.90;;;;;;5054570;28;20606;-79
2022/11/16 09:49:53;;;;;;;14.93;10.37;;;9.10;99.90;;;;;;5054540;28;20183;-79
2022/11/16 09:52:37;;;;;;;15.43;10.33;;;9.20;99.90;;;;;;5054497;28;20265;-79
2022/11/16 09:55:32;;;;;;;17.00;10.47;;;9.20;99.90;;;;;;5054390;28;21007;-78
2022/11/16 09:58:02;;;;;;;16.30;10.73;;;9.10;99.90;;;;;;5054397;28;20170;-80
2022/11/16 10:00:29;;;;;;;18.17;11.30;;;9.10;99.90;;;;;;5054149;28;20543;-79
2022/11/16 10:03:09;;;;;;;17.80;11.30;;;9.10;99.90;;;;;;5054204;28;20764;-79
2022/11/16 10:06:02;;;;;;;15.17;10.70;;;9.20;99.90;;;;;;5036335;28;20189;-81
2022/11/16 10:08:44;;;;;;;17.57;11.63;;;9.20;99.90;;;;;;5054384;28;20170;-78
2022/11/16 10:11:28;;;;;;;17.33;10.73;;;9.20;99.90;;;;;;5054141;28;20198;-80
2022/11/16 10:14:14;;;;;;;15.03;10.47;;;9.30;99.90;;;;;;5053979;28;20184;-80
2022/11/16 10:16:59;;;;;;;15.83;10.87;;;9.50;99.90;;;;;;5054193;28;20191;-79
2022/11/16 10:19:45;;;;;;;16.97;11.67;;;9.80;99.90;;;;;;5054058;28;20173;-80
2022/11/16 10:22:17;;;;;;;16.33;11.30;;;9.90;99.90;;;;;;5053323;28;20222;-81
2022/11/16 10:25:28;;;;;;;19.00;11.63;;;10.20;99.90;;;;;;5016221;28;20220;-79
2022/11/16 10:28:03;;;;;;;17.73;11.97;;;10.20;99.90;;;;;;5029512;28;20208;-80
2022/11/16 10:30:34;;;;;;;15.57;11.30;;;10.40;99.90;;;;;;5016645;28;20189;-78
2022/11/16 10:33:06;;;;;;;16.33;11.10;;;10.60;99.90;;;;;;5034138;28;20581;-80
2022/11/16 10:35:41;;;;;;;15.80;11.27;;;10.70;99.90;;;;;;5033774;28;20204;-77
2022/11/16 10:38:16;;;;;;;16.93;11.30;;;10.70;99.90;;;;;;5036814;28;20172;-79
2022/11/16 10:40:48;;;;;;;16.90;11.90;;;10.60;99.90;;;;;;5038081;28;20190;-81
2022/11/16 10:43:16;;;;;;;18.83;13.27;;;10.60;99.90;;;;;;5033994;28;20171;-79
2022/11/16 10:46:11;;;;;;;18.27;11.67;;;10.70;99.90;;;;;;5033499;28;20192;-79
2022/11/16 10:49:12;;;;;;;16.37;11.50;;;10.70;99.90;;;;;;5033578;28;20168;-79
2022/11/16 10:51:38;;;;;;;14.27;10.63;;;10.80;99.90;;;;;;5033390;28;20274;-82
2022/11/16 10:54:16;;;;;;;14.87;10.63;;;10.90;99.90;;;;;;5033815;28;20599;-82
2022/11/16 10:56:59;;;;;;;14.43;10.77;;;10.90;99.90;;;;;;5029577;28;20587;-79
2022/11/16 10:59:39;;;;;;;15.80;10.90;;;10.90;99.90;;;;;;5033308;28;20257;-80
2022/11/16 11:02:33;;;;;;;16.93;10.93;;;11.00;99.90;;;;;;5033177;28;20207;-80
2022/11/16 11:05:19;;;;;;;15.83;10.63;;;11.10;99.90;;;;;;5033318;28;20616;-80
2022/11/16 11:08:03;;;;;;;15.33;10.73;;;11.00;99.90;;;;;;5033499;28;20168;-82
2022/11/16 11:10:31;;;;;;;16.20;11.60;;;11.10;99.90;;;;;;5033364;28;20706;-80
2022/11/16 11:13:09;;;;;;;16.73;11.57;;;11.00;99.90;;;;;;5015519;28;20195;-81
2022/11/16 11:15:37;;;;;;;19.70;11.90;;;11.10;99.90;;;;;;5033535;28;20183;-79
2022/11/16 11:18:24;;;;;;;13.97;10.90;;;11.10;99.90;;;;;;5033484;28;20179;-79
2022/11/16 11:21:26;;;;;;;16.53;11.60;;;11.10;99.90;;;;;;5033240;28;20180;-79
2022/11/16 11:23:55;;;;;;;19.20;11.83;;;11.20;99.90;;;;;;5020519;28;20261;-79
2022/11/16 11:26:38;;;;;;;17.40;11.50;;;11.10;99.90;;;;;;5033307;28;20183;-78
2022/11/16 11:29:27;;;;;;;16.40;11.10;;;11.10;99.90;;;;;;5033168;28;20168;-79
2022/11/16 11:31:58;;;;;;;14.70;11.23;;;11.10;99.90;;;;;;5033269;28;20164;-79
2022/11/16 11:34:27;;;;;;;16.87;11.73;;;11.10;99.90;;;;;;5033036;28;20191;-78
2022/11/16 11:37:00;;;;;;;16.60;11.87;;;11.10;99.90;;;;;;5033100;28;20259;-79
2022/11/16 11:39:33;;;;;;;15.10;11.23;;;11.10;99.90;;;;;;5032805;28;20187;-79
2022/11/16 11:42:00;;;;;;;18.20;11.23;;;11.00;99.90;;;;;;5033023;28;20239;-79
2022/11/16 11:44:56;;;;;;;15.23;10.37;;;11.00;99.90;;;;;;5032948;28;20264;-78
2022/11/16 11:47:59;;;;;;;16.60;11.80;;;11.00;99.90;;;;;;5031577;28;20326;-79
2022/11/16 11:50:49;;;;;;;15.93;10.70;;;11.00;99.90;;;;;;5032711;28;20651;-79
2022/11/16 11:53:21;;;;;;;16.33;10.50;;;11.00;99.90;;;;;;5032548;28;20189;-79
2022/11/16 11:55:51;;;;;;;16.50;10.47;;;11.00;99.90;;;;;;5038300;28;20168;-81
2022/11/16 11:58:18;;;;;;;17.00;11.47;;;11.00;99.90;;;;;;5032951;28;20623;-79
2022/11/16 12:01:31;;;;;;;16.23;11.43;;;10.90;99.90;;;;;;5032636;28;20539;-78
2022/11/16 12:04:33;;;;;;;13.93;10.33;;;10.90;99.90;;;;;;5031728;28;20598;-80
2022/11/16 12:07:13;;;;;;;15.93;10.70;;;10.80;99.90;;;;;;5038521;28;20172;-81
2022/11/16 12:09:44;;;;;;;17.50;11.20;;;10.80;99.90;;;;;;5037338;28;20172;-79
2022/11/16 12:12:31;;;;;;;18.57;11.67;;;10.80;99.90;;;;;;5036622;28;20199;-79
2022/11/16 12:15:22;;;;;;;14.40;10.87;;;10.60;99.90;;;;;;5036662;28;20233;-79
2022/11/16 12:18:09;;;;;;;15.40;10.63;;;10.80;99.90;;;;;;5036582;28;20259;-82
2022/11/16 12:20:51;;;;;;;17.07;11.47;;;10.70;99.90;;;;;;5036540;28;20228;-80
2022/11/16 12:23:42;;;;;;;16.37;11.60;;;10.80;99.90;;;;;;5044759;28;20554;-81
2022/11/16 12:26:32;;;;;;;15.57;10.77;;;10.60;99.90;;;;;;5056442;28;20178;-80
2022/11/16 12:29:19;;;;;;;16.07;11.27;;;10.60;99.90;;;;;;5056448;28;20237;-81
2022/11/16 12:32:28;;;;;;;18.83;11.73;;;10.60;99.90;;;;;;5056254;28;20676;-81
2022/11/16 12:35:06;;;;;;;18.00;10.90;;;10.70;99.90;;;;;;5056339;28;20569;-80
2022/11/16 12:37:41;;;;;;;18.10;12.00;;;10.70;99.90;;;;;;5056093;28;20183;-78
2022/11/16 12:40:32;;;;;;;15.77;11.00;;;10.60;99.90;;;;;;5056056;28;20166;-79
2022/11/16 12:43:13;;;;;;;17.50;11.47;;;10.60;99.90;;;;;;5055889;28;20210;-79
2022/11/16 12:46:15;;;;;;;15.90;11.37;;;10.50;99.90;;;;;;5038062;28;20541;-78
2022/11/16 12:48:44;;;;;;;17.60;11.37;;;10.40;99.90;;;;;;5055823;28;20185;-79
2022/11/16 12:51:28;;;;;;;15.33;11.13;;;10.60;99.90;;;;;;5056076;28;20569;-79
2022/11/16 12:54:02;;;;;;;15.97;11.03;;;10.70;99.90;;;;;;5055684;28;20198;-80
2022/11/16 12:56:46;;;;;;;17.27;11.33;;;10.60;99.90;;;;;;5055615;28;20201;-79
2022/11/16 12:59:18;;;;;;;14.00;10.60;;;10.50;99.90;;;;;;5037754;28;20200;-78
2022/11/16 13:02:07;;;;;;;15.93;10.53;;;10.60;99.90;;;;;;5055478;28;20214;-79
2022/11/16 13:04:41;;;;;;;14.73;10.30;;;10.50;99.90;;;;;;5055550;28;20633;-79
2022/11/16 13:07:38;;;;;;;16.73;11.33;;;10.40;99.90;;;;;;5055501;28;20179;-81
2022/11/16 13:10:14;;;;;;;16.30;10.97;;;10.40;99.90;;;;;;5024648;28;20194;-79
2022/11/16 13:12:42;;;;;;;15.50;10.30;;;10.50;99.90;;;;;;5055560;28;20344;-78
2022/11/16 13:15:18;;;;;;;14.97;10.70;;;10.50;99.90;;;;;;5054747;28;20187;-78
2022/11/16 13:17:51;;;;;;;15.37;10.03;;;10.40;99.90;;;;;;5056184;28;20162;-80
2022/11/16 13:20:26;;;;;;;14.73;9.87;;;10.40;99.90;;;;;;5055197;28;20166;-80
2022/11/16 13:23:05;;;;;;;14.73;10.23;;;10.30;99.90;;;;;;5057512;28;20557;-80
2022/11/16 13:26:00;;;;;;;15.07;9.73;;;10.30;99.90;;;;;;5056657;28;20187;-78
2022/11/16 13:29:08;;;;;;;12.70;8.77;;;10.40;99.90;;;;;;5055083;28;20167;-79
2022/11/16 13:31:55;;;;;;;9.87;7.80;;;10.50;99.90;;;;;;5054811;28;20183;-79
2022/11/16 13:34:23;;;;;;;10.63;8.43;;;10.60;99.90;;;;;;5061132;28;20166;-80
2022/11/16 13:36:49;;;;;;;10.40;7.43;;;10.60;99.90;;;;;;5039885;28;20180;-79
2022/11/16 13:39:17;;;;;;;8.67;7.63;;;10.60;99.90;;;;;;5037439;28;20189;-80
2022/11/16 13:42:05;;;;;;;10.27;7.80;;;10.70;99.90;;;;;;5054786;28;20710;-79
2022/11/16 13:44:32;;;;;;;9.30;7.30;;;10.80;99.90;;;;;;5054602;28;20270;-78